Terminal Aerodrome Forecast
Issued by NWS Twin Cities, MN

Home | Current Version | Previous Version | Graphics & Text | Print | Product List | Glossary On
Versions: 1 2 3 4 5 6 7 8 9 10 11 12
736
FTUS43 KMPX 021739
TAFEAU
TAF
KEAU 021739Z 0218/0318 26005KT P6SM SCT070
     FM030000 25004KT P6SM SKC
     FM031200 25006KT P6SM SCT250
     FM031500 27013G20KT P6SM SCT120 BKN200=

USA.gov is the U.S. government's official web portal to all federal, state and local government web resources and services.